Time,TemperatureF,DewpointF,PressureIn,WindDirection,WindDirectionDegrees,WindSpeedMPH,WindSpeedGustMPH,Humidity,HourlyPrecipIn,Conditions,Clouds,dailyrainin,SoftwareType,DateUTC
2013-02-22 01:11:00,43.0,37.0,29.52,SSE,158,2.0,4.0,78,0.00,,,0.00,,2013-02-22 09:11:00,
2013-02-22 01:22:00,43.0,37.0,29.52,SSE,158,2.0,4.0,78,0.00,,,0.00,,2013-02-22 09:22:00,
2013-02-22 01:32:00,43.0,37.0,29.52,East,90,1.0,3.0,78,0.00,,,0.00,,2013-02-22 09:32:00,
2013-02-22 01:42:00,43.0,37.0,29.52,SE,135,3.0,5.0,78,0.00,,,0.00,,2013-02-22 09:42:00,
2013-02-22 01:52:00,43.0,37.0,29.52,SE,135,3.0,5.0,78,0.00,,,0.00,,2013-02-22 09:52:00,
2013-02-22 02:01:00,43.0,37.0,29.52,ESE,113,2.0,4.0,78,0.00,,,0.00,,2013-02-22 10:01:00,
2013-02-22 02:11:00,43.0,37.0,29.52,ESE,113,2.0,4.0,78,0.00,,,0.00,,2013-02-22 10:11:00,
2013-02-22 02:21:00,43.0,37.0,29.51,NNW,338,2.0,4.0,79,0.00,,,0.00,,2013-02-22 10:21:00,
2013-02-22 02:31:00,43.0,38.0,29.51,East,90,2.0,4.0,81,0.03,,,0.03,,2013-02-22 10:31:00,
2013-02-22 02:42:00,43.0,38.0,29.51,East,90,2.0,4.0,81,0.03,,,0.03,,2013-02-22 10:42:00,
2013-02-22 02:52:00,42.0,37.0,29.51,ESE,113,2.0,4.0,82,0.03,,,0.03,,2013-02-22 10:52:00,
2013-02-22 03:01:00,42.0,37.0,29.51,SE,135,3.0,3.0,83,0.03,,,0.03,,2013-02-22 11:01:00,
2013-02-22 03:11:00,42.0,37.0,29.51,SE,135,3.0,3.0,83,0.03,,,0.03,,2013-02-22 11:11:00,
2013-02-22 03:21:00,42.0,38.0,29.51,ESE,113,3.0,4.0,84,0.03,,,0.03,,2013-02-22 11:21:00,
2013-02-22 03:31:00,42.0,38.0,29.49,ESE,113,3.0,7.0,85,0.05,,,0.08,,2013-02-22 11:31:00,
2013-02-22 03:42:00,42.0,38.0,29.49,ESE,113,3.0,7.0,85,0.05,,,0.08,,2013-02-22 11:42:00,
2013-02-22 03:52:00,42.0,38.0,29.49,ENE,68,3.0,6.0,86,0.05,,,0.08,,2013-02-22 11:52:00,
2013-02-22 04:01:00,42.0,38.0,29.48,NNE,23,2.0,5.0,87,0.05,,,0.08,,2013-02-22 12:01:00,
2013-02-22 04:11:00,42.0,38.0,29.48,NNE,23,2.0,5.0,87,0.05,,,0.08,,2013-02-22 12:11:00,
2013-02-22 04:21:00,42.0,38.0,29.46,WNW,293,3.0,3.0,87,0.02,,,0.08,,2013-02-22 12:21:00,
2013-02-22 04:32:00,42.0,38.0,29.45,ESE,113,3.0,5.0,87,0.00,,,0.08,,2013-02-22 12:32:00,
2013-02-22 04:42:00,42.0,38.0,29.45,ESE,113,3.0,5.0,87,0.00,,,0.08,,2013-02-22 12:42:00,
2013-02-22 04:52:00,42.0,39.0,29.45,ESE,113,3.0,4.0,88,0.00,,,0.08,,2013-02-22 12:52:00,
2013-02-22 05:01:00,42.0,39.0,29.46,NW,315,4.0,8.0,88,0.00,,,0.08,,2013-02-22 13:01:00,
2013-02-22 05:11:00,42.0,39.0,29.46,NW,315,4.0,8.0,88,0.00,,,0.08,,2013-02-22 13:11:00,
2013-02-22 05:22:00,42.0,39.0,29.43,East,90,4.0,5.0,88,0.00,,,0.08,,2013-02-22 13:22:00,
2013-02-22 05:31:00,42.0,39.0,29.43,ESE,113,5.0,5.0,88,0.00,,,0.08,,2013-02-22 13:31:00,
2013-02-22 05:41:00,42.0,39.0,29.43,ESE,113,5.0,5.0,88,0.00,,,0.08,,2013-02-22 13:41:00,
2013-02-22 05:52:00,42.0,39.0,29.43,SE,135,3.0,4.0,88,0.00,,,0.08,,2013-02-22 13:52:00,
2013-02-22 06:01:00,42.0,39.0,29.41,ENE,68,4.0,11.0,88,0.00,,,0.08,,2013-02-22 14:01:00,
2013-02-22 06:11:00,42.0,39.0,29.40,SE,135,4.0,6.0,88,0.00,,,0.08,,2013-02-22 14:11:00,
2013-02-22 06:21:00,42.0,39.0,29.40,SE,135,4.0,6.0,88,0.00,,,0.08,,2013-02-22 14:21:00,
2013-02-22 06:31:00,42.0,38.0,29.40,East,90,4.0,6.0,87,0.00,,,0.08,,2013-02-22 14:31:00,
2013-02-22 06:41:00,42.0,38.0,29.40,SSE,158,4.0,6.0,87,0.00,,,0.08,,2013-02-22 14:41:00,
2013-02-22 06:52:00,42.0,38.0,29.40,SSE,158,4.0,6.0,87,0.00,,,0.08,,2013-02-22 14:52:00,
2013-02-22 07:01:00,42.0,38.0,29.36,East,90,4.0,9.0,86,0.00,,,0.08,,2013-02-22 15:01:00,
2013-02-22 07:11:00,42.0,38.0,29.35,SE,135,4.0,4.0,86,0.00,,,0.08,,2013-02-22 15:11:00,
2013-02-22 07:21:00,42.0,38.0,29.35,SE,135,4.0,4.0,86,0.00,,,0.08,,2013-02-22 15:21:00,
2013-02-22 07:31:00,42.0,38.0,29.35,WNW,293,4.0,7.0,86,0.00,,,0.08,,2013-02-22 15:31:00,
2013-02-22 07:41:00,42.0,38.0,29.35,WNW,293,4.0,7.0,86,0.00,,,0.08,,2013-02-22 15:41:00,
2013-02-22 07:52:00,42.0,38.0,29.35,ESE,113,3.0,6.0,86,0.00,,,0.08,,2013-02-22 15:52:00,
2013-02-22 08:01:00,42.0,38.0,29.34,ESE,113,3.0,6.0,86,0.03,,,0.11,,2013-02-22 16:01:00,
2013-02-22 08:11:00,43.0,39.0,29.35,SSE,158,4.0,8.0,86,0.03,,,0.11,,2013-02-22 16:11:00,
2013-02-22 08:21:00,43.0,39.0,29.35,SSE,158,4.0,8.0,86,0.03,,,0.11,,2013-02-22 16:21:00,
2013-02-22 08:31:00,43.0,39.0,29.35,SSE,158,4.0,4.0,85,0.03,,,0.11,,2013-02-22 16:31:00,
2013-02-22 08:41:00,43.0,39.0,29.35,SSE,158,4.0,4.0,85,0.03,,,0.11,,2013-02-22 16:41:00,
2013-02-22 08:52:00,43.0,38.0,29.33,WSW,248,3.0,5.0,84,0.03,,,0.11,,2013-02-22 16:52:00,
2013-02-22 09:01:00,43.0,39.0,29.33,SSW,203,2.0,3.0,85,0.03,,,0.14,,2013-02-22 17:01:00,
2013-02-22 09:11:00,43.0,39.0,29.33,SSW,203,2.0,3.0,85,0.03,,,0.14,,2013-02-22 17:11:00,
2013-02-22 09:21:00,43.0,39.0,29.32,SW,225,4.0,5.0,86,0.03,,,0.14,,2013-02-22 17:21:00,
2013-02-22 09:31:00,43.0,39.0,29.32,East,90,2.0,3.0,87,0.06,,,0.17,,2013-02-22 17:31:00,
2013-02-22 09:41:00,43.0,39.0,29.32,East,90,2.0,3.0,87,0.06,,,0.17,,2013-02-22 17:41:00,
2013-02-22 09:52:00,43.0,39.0,29.30,SE,135,4.0,5.0,87,0.09,,,0.20,,2013-02-22 17:52:00,
2013-02-22 10:01:00,43.0,39.0,29.31,SE,135,2.0,3.0,87,0.09,,,0.23,,2013-02-22 18:01:00,
2013-02-22 10:11:00,43.0,40.0,29.30,WSW,248,3.0,4.0,88,0.11,,,0.25,,2013-02-22 18:11:00,
2013-02-22 10:22:00,43.0,40.0,29.30,WSW,248,3.0,4.0,88,0.11,,,0.25,,2013-02-22 18:22:00,
2013-02-22 10:31:00,43.0,40.0,29.30,NNW,338,2.0,3.0,88,0.05,,,0.25,,2013-02-22 18:31:00,
2013-02-22 10:42:00,43.0,40.0,29.30,NNW,338,2.0,3.0,88,0.05,,,0.25,,2013-02-22 18:42:00,
2013-02-22 10:52:00,44.0,41.0,29.28,East,90,2.0,5.0,88,0.02,,,0.25,,2013-02-22 18:52:00,
2013-02-22 11:01:00,44.0,41.0,29.29,SSW,203,2.0,3.0,88,0.05,,,0.28,,2013-02-22 19:01:00,
2013-02-22 11:11:00,44.0,40.0,29.29,NNW,338,3.0,3.0,87,0.06,,,0.31,,2013-02-22 19:11:00,
2013-02-22 11:21:00,44.0,40.0,29.29,NNW,338,3.0,3.0,87,0.06,,,0.31,,2013-02-22 19:21:00,
2013-02-22 11:31:00,44.0,40.0,29.28,SE,135,3.0,5.0,86,0.06,,,0.31,,2013-02-22 19:31:00,
2013-02-22 11:41:00,44.0,40.0,29.28,ESE,113,3.0,6.0,86,0.06,,,0.34,,2013-02-22 19:41:00,
2013-02-22 11:52:00,44.0,40.0,29.28,ESE,113,3.0,6.0,86,0.06,,,0.34,,2013-02-22 19:52:00,
2013-02-22 12:01:00,44.0,40.0,29.26,East,90,4.0,8.0,85,0.06,,,0.34,,2013-02-22 20:01:00,
2013-02-22 12:11:00,44.0,40.0,29.26,East,90,4.0,8.0,85,0.06,,,0.34,,2013-02-22 20:11:00,
2013-02-22 12:21:00,44.0,40.0,29.24,ENE,68,4.0,5.0,85,0.05,,,0.36,,2013-02-22 20:21:00,
2013-02-22 12:31:00,44.0,40.0,29.24,SSE,158,4.0,4.0,85,0.05,,,0.36,,2013-02-22 20:31:00,
2013-02-22 12:41:00,44.0,40.0,29.24,SSE,158,4.0,4.0,85,0.05,,,0.36,,2013-02-22 20:41:00,
2013-02-22 12:52:00,44.0,40.0,29.25,East,90,3.0,6.0,85,0.02,,,0.36,,2013-02-22 20:52:00,
2013-02-22 13:01:00,44.0,40.0,29.24,East,90,3.0,7.0,86,0.03,,,0.39,,2013-02-22 21:01:00,
2013-02-22 13:11:00,44.0,40.0,29.24,SE,135,5.0,7.0,85,0.03,,,0.39,,2013-02-22 21:11:00,
2013-02-22 13:21:00,44.0,40.0,29.24,SE,135,5.0,7.0,85,0.03,,,0.39,,2013-02-22 21:21:00,
2013-02-22 13:31:00,45.0,40.0,29.22,East,90,5.0,11.0,83,0.03,,,0.39,,2013-02-22 21:31:00,
2013-02-22 13:41:00,45.0,40.0,29.22,East,90,5.0,11.0,83,0.03,,,0.39,,2013-02-22 21:41:00,
2013-02-22 13:52:00,44.0,39.0,29.20,East,90,5.0,7.0,81,0.06,,,0.42,,2013-02-22 21:52:00,
2013-02-22 14:01:00,45.0,39.0,29.20,ESE,113,4.0,5.0,80,0.03,,,0.42,,2013-02-22 22:01:00,
2013-02-22 14:11:00,45.0,39.0,29.20,ESE,113,4.0,5.0,80,0.03,,,0.42,,2013-02-22 22:11:00,
2013-02-22 14:21:00,45.0,39.0,29.19,SE,135,6.0,10.0,79,0.03,,,0.42,,2013-02-22 22:21:00,
2013-02-22 14:31:00,45.0,39.0,29.19,SE,135,3.0,4.0,79,0.00,,,0.42,,2013-02-22 22:31:00,
2013-02-22 14:41:00,45.0,39.0,29.19,SE,135,3.0,4.0,79,0.00,,,0.42,,2013-02-22 22:41:00,
2013-02-22 14:52:00,45.0,39.0,29.19,SW,225,4.0,8.0,79,0.00,,,0.42,,2013-02-22 22:52:00,
2013-02-22 15:01:00,45.0,40.0,29.19,SW,225,4.0,7.0,81,0.00,,,0.42,,2013-02-22 23:01:00,
2013-02-22 15:11:00,45.0,40.0,29.19,SW,225,4.0,7.0,81,0.00,,,0.42,,2013-02-22 23:11:00,
2013-02-22 15:21:00,45.0,40.0,29.20,South,180,3.0,11.0,82,0.00,,,0.42,,2013-02-22 23:21:00,
2013-02-22 15:31:00,45.0,40.0,29.20,East,90,4.0,7.0,83,0.00,,,0.42,,2013-02-22 23:31:00,
2013-02-22 15:41:00,45.0,40.0,29.20,East,90,4.0,7.0,83,0.00,,,0.42,,2013-02-22 23:41:00,
2013-02-22 15:52:00,45.0,40.0,29.19,ENE,68,5.0,10.0,83,0.00,,,0.42,,2013-02-22 23:52:00,
2013-02-22 16:01:00,46.0,41.0,29.20,SSE,158,4.0,4.0,82,0.00,,,0.42,,2013-02-23 00:01:00,
2013-02-22 16:11:00,45.0,40.0,29.20,East,90,3.0,7.0,81,0.00,,,0.42,,2013-02-23 00:11:00,
2013-02-22 16:21:00,45.0,40.0,29.20,East,90,3.0,7.0,81,0.00,,,0.42,,2013-02-23 00:21:00,
2013-02-22 16:31:00,45.0,40.0,29.20,SSW,203,3.0,8.0,83,0.00,,,0.42,,2013-02-23 00:31:00,
2013-02-22 16:41:00,45.0,40.0,29.20,SSW,203,3.0,8.0,83,0.00,,,0.42,,2013-02-23 00:41:00,
2013-02-22 16:52:00,46.0,41.0,29.21,North,0,3.0,8.0,83,0.03,,,0.45,,2013-02-23 00:52:00,
2013-02-22 17:01:00,45.0,38.0,29.21,ESE,113,3.0,6.0,76,0.03,,,0.45,,2013-02-23 01:01:00,
2013-02-22 17:11:00,45.0,38.0,29.21,ESE,113,3.0,6.0,76,0.03,,,0.45,,2013-02-23 01:11:00,
2013-02-22 17:21:00,44.0,35.0,29.21,SE,135,4.0,11.0,70,0.03,,,0.45,,2013-02-23 01:21:00,
2013-02-22 17:31:00,44.0,35.0,29.21,East,90,3.0,5.0,71,0.00,,,0.45,,2013-02-23 01:31:00,
2013-02-22 17:41:00,44.0,35.0,29.21,East,90,3.0,5.0,71,0.00,,,0.45,,2013-02-23 01:41:00,
2013-02-22 17:51:00,43.0,34.0,29.21,East,90,4.0,6.0,70,0.00,,,0.45,,2013-02-23 01:51:00,
2013-02-22 18:01:00,42.0,34.0,29.21,SSW,203,3.0,4.0,74,0.00,,,0.45,,2013-02-23 02:01:00,
2013-02-22 18:11:00,42.0,34.0,29.21,SE,135,4.0,6.0,73,0.00,,,0.45,,2013-02-23 02:11:00,
2013-02-22 18:21:00,42.0,34.0,29.21,SE,135,4.0,6.0,73,0.00,,,0.45,,2013-02-23 02:21:00,
2013-02-22 18:31:00,42.0,34.0,29.21,NNW,338,5.0,6.0,72,0.00,,,0.45,,2013-02-23 02:31:00,
2013-02-22 18:41:00,42.0,34.0,29.21,NNW,338,5.0,6.0,72,0.00,,,0.45,,2013-02-23 02:41:00,
2013-02-22 18:52:00,41.0,32.0,29.21,WNW,293,5.0,10.0,70,0.00,,,0.45,,2013-02-23 02:52:00,
2013-02-22 19:01:00,41.0,32.0,29.23,SSW,203,5.0,12.0,70,0.00,,,0.45,,2013-02-23 03:01:00,
2013-02-22 19:11:00,41.0,32.0,29.23,SSW,203,5.0,12.0,70,0.00,,,0.45,,2013-02-23 03:11:00,
2013-02-22 19:21:00,41.0,32.0,29.25,SW,225,4.0,9.0,70,0.00,,,0.45,,2013-02-23 03:21:00,
2013-02-22 19:31:00,41.0,31.0,29.25,SW,225,5.0,15.0,67,0.00,,,0.45,,2013-02-23 03:31:00,
2013-02-22 19:41:00,41.0,31.0,29.25,SW,225,5.0,15.0,67,0.00,,,0.45,,2013-02-23 03:41:00,
2013-02-22 19:52:00,41.0,31.0,29.25,SSE,158,5.0,8.0,68,0.00,,,0.45,,2013-02-23 03:52:00,
2013-02-22 20:01:00,41.0,32.0,29.27,SE,135,4.0,6.0,70,0.00,,,0.45,,2013-02-23 04:01:00,
2013-02-22 20:11:00,40.0,32.0,29.27,SW,225,3.0,4.0,72,0.00,,,0.45,,2013-02-23 04:11:00,
2013-02-22 20:21:00,40.0,32.0,29.27,SW,225,3.0,4.0,72,0.00,,,0.45,,2013-02-23 04:21:00,
2013-02-22 20:31:00,39.0,31.0,29.28,SW,225,3.0,6.0,73,0.00,,,0.45,,2013-02-23 04:31:00,
2013-02-22 20:41:00,39.0,31.0,29.28,SW,225,3.0,6.0,73,0.00,,,0.45,,2013-02-23 04:41:00,
2013-02-22 20:52:00,39.0,31.0,29.28,ENE,68,2.0,5.0,72,0.00,,,0.45,,2013-02-23 04:52:00,
2013-02-22 21:01:00,39.0,31.0,29.29,South,180,3.0,7.0,72,0.00,,,0.45,,2013-02-23 05:01:00,
2013-02-22 21:11:00,39.0,31.0,29.29,South,180,3.0,7.0,72,0.00,,,0.45,,2013-02-23 05:11:00,
2013-02-22 21:22:00,39.0,31.0,29.30,ESE,113,3.0,7.0,73,0.00,,,0.45,,2013-02-23 05:22:00,
2013-02-22 21:32:00,39.0,31.0,29.30,South,180,3.0,6.0,73,0.00,,,0.45,,2013-02-23 05:32:00,
2013-02-22 21:41:00,39.0,31.0,29.30,South,180,3.0,6.0,73,0.00,,,0.45,,2013-02-23 05:41:00,
2013-02-22 21:52:00,39.0,31.0,29.31,East,90,2.0,3.0,73,0.00,,,0.45,,2013-02-23 05:52:00,
2013-02-22 22:01:00,40.0,32.0,29.32,NNE,23,2.0,3.0,73,0.00,,,0.45,,2013-02-23 06:01:00,
2013-02-22 22:11:00,40.0,32.0,29.32,NNE,23,2.0,3.0,73,0.00,,,0.45,,2013-02-23 06:11:00,
2013-02-22 22:31:00,40.0,32.0,29.33,NW,315,2.0,4.0,73,0.00,,,0.45,,2013-02-23 06:31:00,
2013-02-22 22:41:00,40.0,32.0,29.33,NW,315,2.0,4.0,73,0.00,,,0.45,,2013-02-23 06:41:00,
2013-02-22 22:52:00,40.0,32.0,29.35,SE,135,3.0,3.0,73,0.00,,,0.45,,2013-02-23 06:52:00,
2013-02-22 23:01:00,40.0,32.0,29.35,SW,225,2.0,3.0,73,0.00,,,0.45,,2013-02-23 07:01:00,
2013-02-22 23:11:00,40.0,32.0,29.35,SW,225,2.0,3.0,73,0.00,,,0.45,,2013-02-23 07:11:00,
2013-02-22 23:21:00,40.0,32.0,29.35,East,90,2.0,3.0,73,0.00,,,0.45,,2013-02-23 07:21:00,
2013-02-22 23:31:00,40.0,32.0,29.37,SW,225,2.0,5.0,73,0.00,,,0.45,,2013-02-23 07:31:00,
2013-02-22 23:41:00,40.0,32.0,29.37,SW,225,2.0,5.0,73,0.00,,,0.45,,2013-02-23 07:41:00,
2013-02-22 23:52:00,40.0,32.0,29.37,South,180,2.0,2.0,74,0.00,,,0.45,,2013-02-23 07:52:00,